sensor_id;sensor_type;location;lat;lon;timestamp;pressure;altitude;pressure_sealevel;temperature;humidity
38033;BME280;23841;48.524;1.342;2023-06-10T00:01:41;98573.53;;;24.90;51.72
38033;BME280;23841;48.524;1.342;2023-06-10T00:04:08;98569.25;;;24.87;51.62
38033;BME280;23841;48.524;1.342;2023-06-10T00:06:34;98568.25;;;24.88;51.60
38033;BME280;23841;48.524;1.342;2023-06-10T00:09:04;98572.09;;;24.86;51.75
38033;BME280;23841;48.524;1.342;2023-06-10T00:11:32;98568.50;;;24.85;51.47
38033;BME280;23841;48.524;1.342;2023-06-10T00:14:02;98571.94;;;24.87;51.76
38033;BME280;23841;48.524;1.342;2023-06-10T00:16:27;98562.38;;;24.83;51.59
38033;BME280;23841;48.524;1.342;2023-06-10T00:18:53;98576.50;;;24.87;51.64
38033;BME280;23841;48.524;1.342;2023-06-10T00:21:21;98567.81;;;24.83;51.63
38033;BME280;23841;48.524;1.342;2023-06-10T00:23:47;98578.66;;;24.83;51.56
38033;BME280;23841;48.524;1.342;2023-06-10T00:26:13;98570.53;;;24.83;51.67
38033;BME280;23841;48.524;1.342;2023-06-10T00:28:39;98569.78;;;24.81;51.64
38033;BME280;23841;48.524;1.342;2023-06-10T00:31:04;98576.94;;;24.82;51.70
38033;BME280;23841;48.524;1.342;2023-06-10T00:33:30;98569.63;;;24.83;51.66
38033;BME280;23841;48.524;1.342;2023-06-10T00:35:56;98574.22;;;24.82;51.66
38033;BME280;23841;48.524;1.342;2023-06-10T00:38:21;98560.94;;;24.79;51.40
38033;BME280;23841;48.524;1.342;2023-06-10T00:40:46;98562.66;;;24.80;51.75
38033;BME280;23841;48.524;1.342;2023-06-10T00:43:12;98556.66;;;24.77;51.60
38033;BME280;23841;48.524;1.342;2023-06-10T00:45:37;98559.22;;;24.78;51.67
38033;BME280;23841;48.524;1.342;2023-06-10T00:48:03;98571.81;;;24.79;51.76
38033;BME280;23841;48.524;1.342;2023-06-10T00:50:29;98559.50;;;24.75;51.74
38033;BME280;23841;48.524;1.342;2023-06-10T00:52:56;98570.97;;;24.79;51.62
38033;BME280;23841;48.524;1.342;2023-06-10T00:55:22;98572.09;;;24.76;51.58
38033;BME280;23841;48.524;1.342;2023-06-10T00:57:49;98580.94;;;24.78;51.63
38033;BME280;23841;48.524;1.342;2023-06-10T01:00:17;98576.66;;;24.76;51.71
38033;BME280;23841;48.524;1.342;2023-06-10T01:02:42;98577.53;;;24.76;51.69
38033;BME280;23841;48.524;1.342;2023-06-10T01:05:08;98571.34;;;24.74;51.59
38033;BME280;23841;48.524;1.342;2023-06-10T01:10:11;98570.66;;;24.72;51.83
38033;BME280;23841;48.524;1.342;2023-06-10T01:12:49;98567.22;;;24.70;51.65
38033;BME280;23841;48.524;1.342;2023-06-10T01:15:16;98575.06;;;24.73;51.72
38033;BME280;23841;48.524;1.342;2023-06-10T01:18:01;98571.50;;;24.73;51.81
38033;BME280;23841;48.524;1.342;2023-06-10T01:20:29;98579.78;;;24.71;51.70
38033;BME280;23841;48.524;1.342;2023-06-10T01:22:55;98581.53;;;24.72;51.68
38033;BME280;23841;48.524;1.342;2023-06-10T01:25:23;98575.34;;;24.70;51.68
38033;BME280;23841;48.524;1.342;2023-06-10T01:30:31;98570.06;;;24.68;51.69
38033;BME280;23841;48.524;1.342;2023-06-10T01:32:59;98577.50;;;24.66;51.81
38033;BME280;23841;48.524;1.342;2023-06-10T01:35:27;98579.22;;;24.67;51.75
38033;BME280;23841;48.524;1.342;2023-06-10T01:37:56;98568.50;;;24.66;51.89
38033;BME280;23841;48.524;1.342;2023-06-10T01:40:23;98576.63;;;24.66;51.64
38033;BME280;23841;48.524;1.342;2023-06-10T01:42:51;98572.22;;;24.65;51.78
38033;BME280;23841;48.524;1.342;2023-06-10T01:45:17;98571.50;;;24.63;51.83
38033;BME280;23841;48.524;1.342;2023-06-10T01:47:43;98579.63;;;24.63;51.71
38033;BME280;23841;48.524;1.342;2023-06-10T01:50:08;98575.19;;;24.62;51.74
38033;BME280;23841;48.524;1.342;2023-06-10T01:52:34;98584.06;;;24.64;51.68
38033;BME280;23841;48.524;1.342;2023-06-10T01:54:59;98585.06;;;24.63;51.91
38033;BME280;23841;48.524;1.342;2023-06-10T01:57:25;98579.91;;;24.60;51.69
38033;BME280;23841;48.524;1.342;2023-06-10T01:59:50;98581.66;;;24.61;51.64
38033;BME280;23841;48.524;1.342;2023-06-10T02:02:16;98585.22;;;24.61;51.67
38033;BME280;23841;48.524;1.342;2023-06-10T02:04:41;98577.47;;;24.57;51.65
38033;BME280;23841;48.524;1.342;2023-06-10T02:07:07;98586.31;;;24.59;51.77
38033;BME280;23841;48.524;1.342;2023-06-10T02:09:32;98582.59;;;24.60;51.69
38033;BME280;23841;48.524;1.342;2023-06-10T02:12:01;98588.19;;;24.58;51.72
38033;BME280;23841;48.524;1.342;2023-06-10T02:14:26;98591.03;;;24.57;51.75
38033;BME280;23841;48.524;1.342;2023-06-10T02:16:52;98588.59;;;24.53;51.91
38033;BME280;23841;48.524;1.342;2023-06-10T02:19:21;98592.88;;;24.56;51.68
38033;BME280;23841;48.524;1.342;2023-06-10T02:21:48;98595.59;;;24.56;51.77
38033;BME280;23841;48.524;1.342;2023-06-10T02:24:13;98590.31;;;24.54;51.92
38033;BME280;23841;48.524;1.342;2023-06-10T02:26:39;98588.72;;;24.52;51.79
38033;BME280;23841;48.524;1.342;2023-06-10T02:29:05;98594.00;;;24.53;51.92
38033;BME280;23841;48.524;1.342;2023-06-10T02:31:31;98592.31;;;24.52;51.72
38033;BME280;23841;48.524;1.342;2023-06-10T02:33:56;98592.31;;;24.52;51.89
38033;BME280;23841;48.524;1.342;2023-06-10T02:36:22;98584.56;;;24.48;51.95
38033;BME280;23841;48.524;1.342;2023-06-10T02:38:49;98598.88;;;24.50;51.87
38033;BME280;23841;48.524;1.342;2023-06-10T02:41:15;98591.13;;;24.45;51.78
38033;BME280;23841;48.524;1.342;2023-06-10T02:43:40;98595.28;;;24.49;51.90
38033;BME280;23841;48.524;1.342;2023-06-10T02:46:06;98594.56;;;24.47;51.95
38033;BME280;23841;48.524;1.342;2023-06-10T02:48:31;98600.00;;;24.47;51.89
38033;BME280;23841;48.524;1.342;2023-06-10T02:50:56;98600.00;;;24.47;51.86
38033;BME280;23841;48.524;1.342;2023-06-10T02:53:22;98598.28;;;24.46;51.85
38033;BME280;23841;48.524;1.342;2023-06-10T02:55:47;98597.44;;;24.46;51.87
38033;BME280;23841;48.524;1.342;2023-06-10T02:58:13;98590.56;;;24.42;51.82
38033;BME280;23841;48.524;1.342;2023-06-10T03:00:38;98600.28;;;24.44;51.83
38033;BME280;23841;48.524;1.342;2023-06-10T03:03:06;98595.84;;;24.43;51.88
38033;BME280;23841;48.524;1.342;2023-06-10T03:05:32;98598.56;;;24.43;51.75
38033;BME280;23841;48.524;1.342;2023-06-10T03:07:58;98597.00;;;24.41;51.98
38033;BME280;23841;48.524;1.342;2023-06-10T03:10:24;98602.56;;;24.39;51.80
38033;BME280;23841;48.524;1.342;2023-06-10T03:12:50;98600.53;;;24.41;52.03
38033;BME280;23841;48.524;1.342;2023-06-10T03:15:15;98603.25;;;24.41;51.85
38033;BME280;23841;48.524;1.342;2023-06-10T03:17:41;98604.28;;;24.40;51.86
38033;BME280;23841;48.524;1.342;2023-06-10T03:20:06;98602.56;;;24.39;51.80
38033;BME280;23841;48.524;1.342;2023-06-10T03:22:35;98597.13;;;24.39;51.75
38033;BME280;23841;48.524;1.342;2023-06-10T03:25:01;98596.28;;;24.39;51.62
38033;BME280;23841;48.524;1.342;2023-06-10T03:27:27;98603.53;;;24.38;51.89
38033;BME280;23841;48.524;1.342;2023-06-10T03:29:52;98602.25;;;24.32;51.85
38033;BME280;23841;48.524;1.342;2023-06-10T03:32:17;98599.53;;;24.32;51.72
38033;BME280;23841;48.524;1.342;2023-06-10T03:34:43;98595.97;;;24.32;51.96
38033;BME280;23841;48.524;1.342;2023-06-10T03:37:10;98595.97;;;24.32;51.82
38033;BME280;23841;48.524;1.342;2023-06-10T03:39:35;98587.22;;;24.28;51.88
38033;BME280;23841;48.524;1.342;2023-06-10T03:42:01;98589.66;;;24.31;51.93
38033;BME280;23841;48.524;1.342;2023-06-10T03:44:27;98589.81;;;24.30;51.99
38033;BME280;23841;48.524;1.342;2023-06-10T03:46:53;98587.97;;;24.30;51.71
38033;BME280;23841;48.524;1.342;2023-06-10T03:49:19;98595.22;;;24.30;51.89
38033;BME280;23841;48.524;1.342;2023-06-10T03:51:44;98592.53;;;24.30;51.79
38033;BME280;23841;48.524;1.342;2023-06-10T03:54:09;98584.94;;;24.24;51.85
38033;BME280;23841;48.524;1.342;2023-06-10T03:56:35;98598.97;;;24.29;51.99
38033;BME280;23841;48.524;1.342;2023-06-10T03:59:00;98597.38;;;24.26;51.80
38033;BME280;23841;48.524;1.342;2023-06-10T04:01:26;98599.06;;;24.27;51.84
38033;BME280;23841;48.524;1.342;2023-06-10T04:03:51;98591.34;;;24.23;51.86
38033;BME280;23841;48.524;1.342;2023-06-10T04:06:19;98595.78;;;24.24;51.95
38033;BME280;23841;48.524;1.342;2023-06-10T04:08:45;98606.50;;;24.25;51.96
38033;BME280;23841;48.524;1.342;2023-06-10T04:11:11;98604.94;;;24.23;52.01
38033;BME280;23841;48.524;1.342;2023-06-10T04:13:40;98613.81;;;24.25;51.74
38033;BME280;23841;48.524;1.342;2023-06-10T04:16:05;98613.06;;;24.23;51.68
38033;BME280;23841;48.524;1.342;2023-06-10T04:18:31;98615.78;;;24.23;51.82
38033;BME280;23841;48.524;1.342;2023-06-10T04:20:56;98630.34;;;24.22;51.97
38033;BME280;23841;48.524;1.342;2023-06-10T04:23:22;98636.78;;;24.20;51.68
38033;BME280;23841;48.524;1.342;2023-06-10T04:25:47;98627.91;;;24.18;51.82
38033;BME280;23841;48.524;1.342;2023-06-10T04:28:13;98631.34;;;24.20;51.72
38033;BME280;23841;48.524;1.342;2023-06-10T04:30:39;98640.47;;;24.19;51.96
38033;BME280;23841;48.524;1.342;2023-06-10T04:33:04;98635.06;;;24.19;52.00
38033;BME280;23841;48.524;1.342;2023-06-10T04:35:31;98637.75;;;24.19;52.05
38033;BME280;23841;48.524;1.342;2023-06-10T04:37:57;98642.44;;;24.17;51.88
38033;BME280;23841;48.524;1.342;2023-06-10T04:40:23;98635.59;;;24.13;52.04
38033;BME280;23841;48.524;1.342;2023-06-10T04:42:48;98634.16;;;24.09;52.00
38033;BME280;23841;48.524;1.342;2023-06-10T04:45:14;98641.28;;;24.10;52.19
38033;BME280;23841;48.524;1.342;2023-06-10T04:47:39;98646.44;;;24.13;52.06
38033;BME280;23841;48.524;1.342;2023-06-10T04:50:05;98640.28;;;24.11;51.96
38033;BME280;23841;48.524;1.342;2023-06-10T04:52:31;98643.84;;;24.12;52.04
38033;BME280;23841;48.524;1.342;2023-06-10T04:54:57;98650.16;;;24.12;51.92
38033;BME280;23841;48.524;1.342;2023-06-10T04:57:23;98643.28;;;24.08;52.20
38033;BME280;23841;48.524;1.342;2023-06-10T04:59:49;98633.69;;;24.04;51.95
38033;BME280;23841;48.524;1.342;2023-06-10T05:02:14;98636.97;;;24.08;52.30
38033;BME280;23841;48.524;1.342;2023-06-10T05:04:40;98647.84;;;24.08;52.12
38033;BME280;23841;48.524;1.342;2023-06-10T05:07:05;98641.09;;;24.02;52.01
38033;BME280;23841;48.524;1.342;2023-06-10T05:09:31;98643.69;;;24.03;52.22
38033;BME280;23841;48.524;1.342;2023-06-10T05:11:56;98647.28;;;24.04;52.18
38033;BME280;23841;48.524;1.342;2023-06-10T05:14:22;98643.81;;;24.02;51.89
38033;BME280;23841;48.524;1.342;2023-06-10T05:16:48;98649.00;;;24.05;52.11
38033;BME280;23841;48.524;1.342;2023-06-10T05:19:13;98647.28;;;24.04;51.94
38033;BME280;23841;48.524;1.342;2023-06-10T05:21:41;98649.00;;;24.05;52.05
38033;BME280;23841;48.524;1.342;2023-06-10T05:24:06;98648.25;;;24.03;51.96
38033;BME280;23841;48.524;1.342;2023-06-10T05:26:32;98646.53;;;24.02;52.07
38033;BME280;23841;48.524;1.342;2023-06-10T05:28:58;98639.78;;;23.96;51.96
38033;BME280;23841;48.524;1.342;2023-06-10T05:31:23;98645.94;;;23.98;52.02
38033;BME280;23841;48.524;1.342;2023-06-10T05:33:49;98645.06;;;23.98;52.02
38033;BME280;23841;48.524;1.342;2023-06-10T05:36:14;98656.66;;;24.00;51.97
38033;BME280;23841;48.524;1.342;2023-06-10T05:38:40;98660.38;;;23.99;52.14
38033;BME280;23841;48.524;1.342;2023-06-10T05:41:05;98660.63;;;23.96;52.04
38033;BME280;23841;48.524;1.342;2023-06-10T05:43:31;98656.06;;;23.96;52.10
38033;BME280;23841;48.524;1.342;2023-06-10T05:45:56;98672.34;;;23.96;52.17
38033;BME280;23841;48.524;1.342;2023-06-10T05:48:22;98673.22;;;23.97;52.27
38033;BME280;23841;48.524;1.342;2023-06-10T05:50:47;98677.91;;;23.95;52.23
38033;BME280;23841;48.524;1.342;2023-06-10T05:53:16;98678.88;;;23.94;52.27
38033;BME280;23841;48.524;1.342;2023-06-10T05:55:43;98682.47;;;23.94;52.26
38033;BME280;23841;48.524;1.342;2023-06-10T05:58:09;98674.34;;;23.94;52.29
38033;BME280;23841;48.524;1.342;2023-06-10T06:00:35;98680.88;;;23.92;52.34
38033;BME280;23841;48.524;1.342;2023-06-10T06:03:00;98686.91;;;23.95;52.31
38033;BME280;23841;48.524;1.342;2023-06-10T06:05:26;98683.47;;;23.93;52.51
38033;BME280;23841;48.524;1.342;2023-06-10T06:07:51;98686.31;;;23.92;52.34
38033;BME280;23841;48.524;1.342;2023-06-10T06:10:18;98688.03;;;23.93;52.64
38033;BME280;23841;48.524;1.342;2023-06-10T06:12:43;98684.56;;;23.91;52.65
38033;BME280;23841;48.524;1.342;2023-06-10T06:15:10;98686.44;;;23.90;52.69
38033;BME280;23841;48.524;1.342;2023-06-10T06:17:35;98683.97;;;23.87;52.69
38033;BME280;23841;48.524;1.342;2023-06-10T06:20:02;98690.16;;;23.89;52.84
38033;BME280;23841;48.524;1.342;2023-06-10T06:22:27;98691.88;;;23.90;52.99
38033;BME280;23841;48.524;1.342;2023-06-10T06:24:52;98686.59;;;23.89;52.91
38033;BME280;23841;48.524;1.342;2023-06-10T06:27:18;98697.53;;;23.87;53.08
38033;BME280;23841;48.524;1.342;2023-06-10T06:29:43;98693.94;;;23.86;53.04
38033;BME280;23841;48.524;1.342;2023-06-10T06:32:08;98688.78;;;23.83;53.27
38033;BME280;23841;48.524;1.342;2023-06-10T06:34:34;98701.97;;;23.88;53.23
38033;BME280;23841;48.524;1.342;2023-06-10T06:36:59;98698.41;;;23.88;53.18
38033;BME280;23841;48.524;1.342;2023-06-10T06:39:25;98703.94;;;23.86;53.28
38033;BME280;23841;48.524;1.342;2023-06-10T06:41:50;98705.66;;;23.87;53.51
38033;BME280;23841;48.524;1.342;2023-06-10T06:44:16;98706.78;;;23.84;53.48
38033;BME280;23841;48.524;1.342;2023-06-10T06:46:41;98712.34;;;23.83;53.52
38033;BME280;23841;48.524;1.342;2023-06-10T06:49:07;98697.56;;;23.76;53.66
38033;BME280;23841;48.524;1.342;2023-06-10T06:51:32;98704.34;;;23.81;53.97
38033;BME280;23841;48.524;1.342;2023-06-10T06:53:57;98711.34;;;23.84;53.88
38033;BME280;23841;48.524;1.342;2023-06-10T06:56:24;98716.03;;;23.82;54.00
38033;BME280;23841;48.524;1.342;2023-06-10T06:58:51;98720.34;;;23.84;54.23
38033;BME280;23841;48.524;1.342;2023-06-10T07:01:16;98719.59;;;23.82;54.42
38033;BME280;23841;48.524;1.342;2023-06-10T07:03:42;98719.59;;;23.82;54.83
38033;BME280;23841;48.524;1.342;2023-06-10T07:06:07;98722.44;;;23.81;55.08
38033;BME280;23841;48.524;1.342;2023-06-10T07:08:33;98720.72;;;23.80;55.49
38033;BME280;23841;48.524;1.342;2023-06-10T07:10:58;98719.88;;;23.79;55.51
38033;BME280;23841;48.524;1.342;2023-06-10T07:13:23;98734.19;;;23.81;55.61
38033;BME280;23841;48.524;1.342;2023-06-10T07:15:49;98727.03;;;23.80;55.49
38033;BME280;23841;48.524;1.342;2023-06-10T07:18:15;98725.28;;;23.79;55.32
38033;BME280;23841;48.524;1.342;2023-06-10T07:20:41;98725.28;;;23.79;55.41
38033;BME280;23841;48.524;1.342;2023-06-10T07:23:06;98727.88;;;23.81;55.57
38033;BME280;23841;48.524;1.342;2023-06-10T07:25:32;98732.44;;;23.80;55.56
38033;BME280;23841;48.524;1.342;2023-06-10T07:27:57;98736.16;;;23.79;55.78
38033;BME280;23841;48.524;1.342;2023-06-10T07:30:23;98732.44;;;23.80;56.06
38033;BME280;23841;48.524;1.342;2023-06-10T07:32:48;98740.72;;;23.79;56.07
38033;BME280;23841;48.524;1.342;2023-06-10T07:35:13;98739.00;;;23.78;56.31
38033;BME280;23841;48.524;1.342;2023-06-10T07:37:39;98741.56;;;23.79;56.50
38033;BME280;23841;48.524;1.342;2023-06-10T07:40:05;98741.56;;;23.79;56.38
38033;BME280;23841;48.524;1.342;2023-06-10T07:42:34;98747.97;;;23.78;56.68
38033;BME280;23841;48.524;1.342;2023-06-10T07:44:59;98752.41;;;23.79;56.77
38033;BME280;23841;48.524;1.342;2023-06-10T07:47:25;98755.13;;;23.79;56.54
38033;BME280;23841;48.524;1.342;2023-06-10T07:49:50;98762.28;;;23.80;56.80
38033;BME280;23841;48.524;1.342;2023-06-10T07:52:15;98757.84;;;23.79;56.68
38033;BME280;23841;48.524;1.342;2023-06-10T07:54:41;98757.00;;;23.79;56.67
38033;BME280;23841;48.524;1.342;2023-06-10T07:57:06;98757.97;;;23.78;56.86
38033;BME280;23841;48.524;1.342;2023-06-10T07:59:32;98761.53;;;23.78;57.03
38033;BME280;23841;48.524;1.342;2023-06-10T08:01:58;98762.41;;;23.79;56.82
38033;BME280;23841;48.524;1.342;2023-06-10T08:04:23;98758.69;;;23.80;56.66
38033;BME280;23841;48.524;1.342;2023-06-10T08:06:49;98755.41;;;23.76;56.26
38033;BME280;23841;48.524;1.342;2023-06-10T08:09:14;98765.00;;;23.80;56.61
38033;BME280;23841;48.524;1.342;2023-06-10T08:11:40;98767.69;;;23.80;57.05
38033;BME280;23841;48.524;1.342;2023-06-10T08:14:05;98770.41;;;23.80;56.97
38033;BME280;23841;48.524;1.342;2023-06-10T08:16:31;98773.13;;;23.80;57.09
38033;BME280;23841;48.524;1.342;2023-06-10T08:19:00;98768.69;;;23.79;57.08
38033;BME280;23841;48.524;1.342;2023-06-10T08:21:27;98774.38;;;23.76;57.35
38033;BME280;23841;48.524;1.342;2023-06-10T08:23:53;98778.56;;;23.80;57.53
38033;BME280;23841;48.524;1.342;2023-06-10T08:26:21;98780.28;;;23.81;57.51
38033;BME280;23841;48.524;1.342;2023-06-10T08:28:46;98780.28;;;23.81;57.15
38033;BME280;23841;48.524;1.342;2023-06-10T08:31:12;98773.84;;;23.82;57.12
38033;BME280;23841;48.524;1.342;2023-06-10T08:33:37;98774.84;;;23.81;57.50
38033;BME280;23841;48.524;1.342;2023-06-10T08:36:03;98778.41;;;23.82;57.30
38033;BME280;23841;48.524;1.342;2023-06-10T08:38:28;98781.25;;;23.80;57.00
38033;BME280;23841;48.524;1.342;2023-06-10T08:40:56;98786.53;;;23.82;57.39
38033;BME280;23841;48.524;1.342;2023-06-10T08:43:29;98783.84;;;23.82;57.42
38033;BME280;23841;48.524;1.342;2023-06-10T08:46:00;98789.25;;;23.82;57.53
38033;BME280;23841;48.524;1.342;2023-06-10T08:48:29;98791.13;;;23.81;57.90
38033;BME280;23841;48.524;1.342;2023-06-10T08:50:57;98789.25;;;23.82;57.94
38033;BME280;23841;48.524;1.342;2023-06-10T08:53:24;98787.53;;;23.81;58.12
38033;BME280;23841;48.524;1.342;2023-06-10T08:55:51;98791.97;;;23.82;58.40
38033;BME280;23841;48.524;1.342;2023-06-10T08:58:18;98796.56;;;23.81;58.47
38033;BME280;23841;48.524;1.342;2023-06-10T09:00:44;98803.81;;;23.81;58.54
38033;BME280;23841;48.524;1.342;2023-06-10T09:03:10;98804.69;;;23.81;58.52
38033;BME280;23841;48.524;1.342;2023-06-10T09:05:36;98807.25;;;23.83;58.59
38033;BME280;23841;48.524;1.342;2023-06-10T09:08:05;98802.94;;;23.80;58.52
38033;BME280;23841;48.524;1.342;2023-06-10T09:10:31;98809.09;;;23.82;57.89
38033;BME280;23841;48.524;1.342;2023-06-10T09:12:57;98806.38;;;23.82;58.66
38033;BME280;23841;48.524;1.342;2023-06-10T09:15:23;98812.56;;;23.84;58.40
38033;BME280;23841;48.524;1.342;2023-06-10T09:17:48;98818.69;;;23.86;58.04
38033;BME280;23841;48.524;1.342;2023-06-10T09:20:13;98818.69;;;23.86;58.58
38033;BME280;23841;48.524;1.342;2023-06-10T09:22:41;98818.81;;;23.85;58.91
38033;BME280;23841;48.524;1.342;2023-06-10T09:25:12;98815.13;;;23.86;58.47
38033;BME280;23841;48.524;1.342;2023-06-10T09:27:49;98804.28;;;23.86;58.83
38033;BME280;23841;48.524;1.342;2023-06-10T09:30:29;98810.44;;;23.88;58.49
38033;BME280;23841;48.524;1.342;2023-06-10T09:32:56;98808.50;;;23.90;58.87
38033;BME280;23841;48.524;1.342;2023-06-10T09:35:24;98811.34;;;23.89;58.90
38033;BME280;23841;48.524;1.342;2023-06-10T09:37:54;98808.50;;;23.90;59.03
38033;BME280;23841;48.524;1.342;2023-06-10T09:40:20;98819.34;;;23.90;59.45
38033;BME280;23841;48.524;1.342;2023-06-10T09:42:45;98811.06;;;23.92;58.50
38033;BME280;23841;48.524;1.342;2023-06-10T09:45:14;98815.50;;;23.93;58.80
38033;BME280;23841;48.524;1.342;2023-06-10T09:47:40;98818.22;;;23.93;58.84
38033;BME280;23841;48.524;1.342;2023-06-10T09:50:06;98816.22;;;23.95;58.59
38033;BME280;23841;48.524;1.342;2023-06-10T09:52:31;98812.53;;;23.96;59.22
38033;BME280;23841;48.524;1.342;2023-06-10T09:55:01;98815.09;;;23.97;59.12
38033;BME280;23841;48.524;1.342;2023-06-10T09:57:31;98823.09;;;23.99;58.57
38033;BME280;23841;48.524;1.342;2023-06-10T10:00:05;98820.25;;;24.00;58.66
38033;BME280;23841;48.524;1.342;2023-06-10T10:02:31;98819.41;;;24.00;59.57
38033;BME280;23841;48.524;1.342;2023-06-10T10:05:02;98818.56;;;23.99;59.18
38033;BME280;23841;48.524;1.342;2023-06-10T10:07:29;98823.72;;;24.02;58.96
38033;BME280;23841;48.524;1.342;2023-06-10T10:09:56;98824.56;;;24.03;59.10
38033;BME280;23841;48.524;1.342;2023-06-10T10:12:22;98819.88;;;24.05;58.71
38033;BME280;23841;48.524;1.342;2023-06-10T10:14:51;98813.44;;;24.06;58.62
38033;BME280;23841;48.524;1.342;2023-06-10T10:17:20;98803.13;;;24.00;58.92
38033;BME280;23841;48.524;1.342;2023-06-10T10:19:48;98816.31;;;24.05;58.77
38033;BME280;23841;48.524;1.342;2023-06-10T10:22:24;98817.75;;;24.09;58.94
38033;BME280;23841;48.524;1.342;2023-06-10T10:24:53;98810.50;;;24.09;59.41
38033;BME280;23841;48.524;1.342;2023-06-10T10:27:27;98814.91;;;24.10;58.93
38033;BME280;23841;48.524;1.342;2023-06-10T10:30:03;98816.66;;;24.11;59.55
38033;BME280;23841;48.524;1.342;2023-06-10T10:33:04;98809.34;;;24.12;59.42
38033;BME280;23841;48.524;1.342;2023-06-10T10:35:30;98796.06;;;24.09;58.87
38033;BME280;23841;48.524;1.342;2023-06-10T10:37:57;98805.78;;;24.11;58.48
38033;BME280;23841;48.524;1.342;2023-06-10T10:40:23;98808.09;;;24.16;57.99
38033;BME280;23841;48.524;1.342;2023-06-10T10:42:50;98801.56;;;24.18;57.82
38033;BME280;23841;48.524;1.342;2023-06-10T10:45:16;98800.28;;;24.23;57.89
38033;BME280;23841;48.524;1.342;2023-06-10T10:47:44;98808.16;;;24.26;57.79
38033;BME280;23841;48.524;1.342;2023-06-10T10:50:17;98807.91;;;24.29;58.14
38033;BME280;23841;48.524;1.342;2023-06-10T10:53:00;98808.34;;;24.34;58.26
38033;BME280;23841;48.524;1.342;2023-06-10T10:55:29;98798.25;;;24.36;58.93
38033;BME280;23841;48.524;1.342;2023-06-10T10:57:56;98808.13;;;24.37;58.69
38033;BME280;23841;48.524;1.342;2023-06-10T11:00:35;98801.69;;;24.38;59.24
38033;BME280;23841;48.524;1.342;2023-06-10T11:03:08;98807.56;;;24.43;58.96
38033;BME280;23841;48.524;1.342;2023-06-10T11:05:45;98803.88;;;24.44;58.99
38033;BME280;23841;48.524;1.342;2023-06-10T11:08:13;98801.88;;;24.46;59.14
38033;BME280;23841;48.524;1.342;2023-06-10T11:10:50;98800.88;;;24.47;58.87
38033;BME280;23841;48.524;1.342;2023-06-10T11:13:18;98804.31;;;24.49;58.64
38033;BME280;23841;48.524;1.342;2023-06-10T11:18:20;98809.63;;;24.51;58.78
38033;BME280;23841;48.524;1.342;2023-06-10T11:26:18;98804.28;;;24.61;58.92
38033;BME280;23841;48.524;1.342;2023-06-10T11:31:28;98804.84;;;24.64;58.94
38033;BME280;23841;48.524;1.342;2023-06-10T11:34:02;98792.41;;;24.62;58.90
38033;BME280;23841;48.524;1.342;2023-06-10T11:36:28;98803.72;;;24.67;58.94
38033;BME280;23841;48.524;1.342;2023-06-10T11:38:59;98779.84;;;24.61;58.75
38033;BME280;23841;48.524;1.342;2023-06-10T11:41:26;98800.59;;;24.71;58.34
38033;BME280;23841;48.524;1.342;2023-06-10T11:43:54;98795.03;;;24.73;58.77
38033;BME280;23841;48.524;1.342;2023-06-10T11:46:23;98792.44;;;24.71;58.37
38033;BME280;23841;48.524;1.342;2023-06-10T11:48:53;98793.06;;;24.75;58.47
38033;BME280;23841;48.524;1.342;2023-06-10T11:51:19;98795.63;;;24.77;58.36
38033;BME280;23841;48.524;1.342;2023-06-10T11:53:47;98800.22;;;24.76;58.42
38033;BME280;23841;48.524;1.342;2023-06-10T11:56:13;98787.47;;;24.77;58.35
38033;BME280;23841;48.524;1.342;2023-06-10T11:58:43;98790.19;;;24.77;58.23
38033;BME280;23841;48.524;1.342;2023-06-10T12:01:10;98806.34;;;24.78;58.22
38033;BME280;23841;48.524;1.342;2023-06-10T12:03:37;98801.06;;;24.77;58.19
38033;BME280;23841;48.524;1.342;2023-06-10T12:06:06;98791.78;;;24.79;58.21
38033;BME280;23841;48.524;1.342;2023-06-10T12:08:33;98802.78;;;24.78;58.15
38033;BME280;23841;48.524;1.342;2023-06-10T12:11:06;98797.22;;;24.79;57.93
38033;BME280;23841;48.524;1.342;2023-06-10T12:13:31;98791.78;;;24.79;58.05
38033;BME280;23841;48.524;1.342;2023-06-10T12:16:07;98789.06;;;24.79;57.87
38033;BME280;23841;48.524;1.342;2023-06-10T12:18:33;98796.78;;;24.84;57.86
38033;BME280;23841;48.524;1.342;2023-06-10T12:20:58;98797.91;;;24.81;57.80
38033;BME280;23841;48.524;1.342;2023-06-10T12:23:24;98791.78;;;24.79;57.76
38033;BME280;23841;48.524;1.342;2023-06-10T12:25:51;98796.94;;;24.82;57.76
38033;BME280;23841;48.524;1.342;2023-06-10T12:28:18;98809.53;;;24.83;57.60
38033;BME280;23841;48.524;1.342;2023-06-10T12:30:45;98807.09;;;24.80;57.81
38033;BME280;23841;48.524;1.342;2023-06-10T12:33:21;98809.06;;;24.78;57.44
38033;BME280;23841;48.524;1.342;2023-06-10T12:35:48;98806.22;;;24.80;57.66
38033;BME280;23841;48.524;1.342;2023-06-10T12:38:14;98807.34;;;24.77;57.67
38033;BME280;23841;48.524;1.342;2023-06-10T12:40:47;98806.50;;;24.77;57.92
38033;BME280;23841;48.524;1.342;2023-06-10T12:43:12;98810.19;;;24.76;57.68
38033;BME280;23841;48.524;1.342;2023-06-10T12:45:39;98812.78;;;24.77;57.65
38033;BME280;23841;48.524;1.342;2023-06-10T12:48:09;98816.22;;;24.79;57.69
38033;BME280;23841;48.524;1.342;2023-06-10T12:50:39;98825.09;;;24.81;57.35
38033;BME280;23841;48.524;1.342;2023-06-10T12:53:05;98811.06;;;24.76;57.59
38033;BME280;23841;48.524;1.342;2023-06-10T12:55:31;98817.06;;;24.80;57.49
38033;BME280;23841;48.524;1.342;2023-06-10T12:57:56;98807.34;;;24.77;57.44
38033;BME280;23841;48.524;1.342;2023-06-10T13:00:22;98812.78;;;24.77;57.62
38033;BME280;23841;48.524;1.342;2023-06-10T13:02:53;98814.50;;;24.78;58.13
38033;BME280;23841;48.524;1.342;2023-06-10T13:05:19;98807.34;;;24.77;58.09
38033;BME280;23841;48.524;1.342;2023-06-10T13:07:46;98813.50;;;24.79;57.91
38033;BME280;23841;48.524;1.342;2023-06-10T13:10:13;98804.63;;;24.77;57.82
38033;BME280;23841;48.524;1.342;2023-06-10T13:12:39;98811.50;;;24.81;57.53
38033;BME280;23841;48.524;1.342;2023-06-10T13:15:05;98805.38;;;24.79;57.75